Time;durP1;ratioP1;P1;durP2;ratioP2;P2;SDS_P1;SDS_P2;PMS_P1;PMS_P2;Temp;Humidity;BMP_temperature;BMP_pressure;BME280_temperature;BME280_humidity;BME280_pressure;Samples;Min_cycle;Max_cycle;Signal;HPM_P1;HPM_P2
2021/11/19 00:00:43;;;;;;;18.40;11.10;;;13.70;84.70;;;;;;5015098;28;92482;-77
2021/11/19 00:03:11;;;;;;;20.70;11.02;;;13.70;84.60;;;;;;4995932;28;96647;-77
2021/11/19 00:05:40;;;;;;;21.83;11.43;;;13.70;84.80;;;;;;4997489;28;95146;-77
2021/11/19 00:08:08;;;;;;;19.75;11.13;;;13.70;84.60;;;;;;5015242;28;92422;-77
2021/11/19 00:10:36;;;;;;;27.95;11.43;;;13.70;84.50;;;;;;5014768;28;99006;-77
2021/11/19 00:13:04;;;;;;;19.20;11.45;;;13.70;84.40;;;;;;4997435;28;93089;-77
2021/11/19 00:15:33;;;;;;;21.88;11.63;;;13.70;84.40;;;;;;4997055;28;94137;-77
2021/11/19 00:18:00;;;;;;;18.77;11.73;;;13.70;84.40;;;;;;4997382;28;92532;-77
2021/11/19 00:20:29;;;;;;;21.67;12.50;;;13.70;84.40;;;;;;4997204;28;91760;-77
2021/11/19 00:22:58;;;;;;;18.92;11.60;;;13.70;84.90;;;;;;4997248;28;93099;-77
2021/11/19 00:25:26;;;;;;;25.73;13.35;;;13.70;84.20;;;;;;4996716;28;92783;-77
2021/11/19 00:27:54;;;;;;;24.73;12.48;;;13.70;84.20;;;;;;4995984;28;94869;-77
2021/11/19 00:30:22;;;;;;;20.73;12.18;;;13.70;84.20;;;;;;4995327;28;109182;-77
2021/11/19 00:32:49;;;;;;;25.85;12.07;;;13.70;84.10;;;;;;5014962;28;93057;-77
2021/11/19 00:35:17;;;;;;;24.15;14.23;;;13.80;84.10;;;;;;4997095;28;92753;-77
2021/11/19 00:37:48;;;;;;;23.55;12.75;;;13.80;84.00;;;;;;4996761;28;93005;-77
2021/11/19 00:40:21;;;;;;;24.90;13.65;;;13.80;84.10;;;;;;4997263;28;92546;-77
2021/11/19 00:42:48;;;;;;;21.30;13.13;;;13.80;84.20;;;;;;5014058;28;94073;-77
2021/11/19 00:45:15;;;;;;;22.45;12.88;;;13.80;84.10;;;;;;5015189;28;92778;-77
2021/11/19 00:47:42;;;;;;;21.13;12.07;;;13.80;84.10;;;;;;5014686;28;93150;-77
2021/11/19 00:50:10;;;;;;;21.35;12.82;;;13.80;84.10;;;;;;5014795;28;93237;-77
2021/11/19 00:52:37;;;;;;;23.42;12.57;;;13.80;84.10;;;;;;4994735;28;97915;-77
2021/11/19 00:55:08;;;;;;;22.23;12.20;;;13.90;84.10;;;;;;4980149;28;97699;-77
2021/11/19 00:57:35;;;;;;;24.60;13.27;;;13.80;83.90;;;;;;4996413;28;92462;-77
2021/11/19 01:00:06;;;;;;;25.48;12.88;;;13.80;83.90;;;;;;5014714;28;92534;-77
2021/11/19 01:02:33;;;;;;;26.77;12.18;;;13.80;83.90;;;;;;4996376;28;95772;-77
2021/11/19 01:05:01;;;;;;;22.38;12.05;;;13.80;84.00;;;;;;4996239;28;95206;-77
2021/11/19 01:07:29;;;;;;;18.02;12.35;;;13.80;83.80;;;;;;4996391;28;92535;-77
2021/11/19 01:10:00;;;;;;;23.73;11.95;;;13.80;83.80;;;;;;4964615;28;91792;-77
2021/11/19 01:12:30;;;;;;;17.92;11.43;;;13.80;83.80;;;;;;4996441;28;95624;-77
2021/11/19 01:15:19;;;;;;;20.17;12.00;;;13.80;83.80;;;;;;4996320;28;94270;-77
2021/11/19 01:17:57;;;;;;;18.48;11.57;;;13.90;83.70;;;;;;4994924;28;94886;-77
2021/11/19 01:20:51;;;;;;;28.17;11.70;;;13.90;83.80;;;;;;4996357;28;93396;-77
2021/11/19 01:23:21;;;;;;;19.52;10.55;;;13.90;83.80;;;;;;4990983;28;95483;-77
2021/11/19 01:25:52;;;;;;;18.90;11.48;;;13.90;83.70;;;;;;4995902;28;95394;-77
2021/11/19 01:28:21;;;;;;;19.50;11.25;;;13.90;83.80;;;;;;4996292;28;92538;-77
2021/11/19 01:30:53;;;;;;;20.15;11.50;;;13.80;83.70;;;;;;5014155;28;92460;-77
2021/11/19 01:33:20;;;;;;;18.77;11.02;;;13.90;83.70;;;;;;4996083;28;94184;-77
2021/11/19 01:35:53;;;;;;;22.88;11.20;;;13.80;83.70;;;;;;5014359;28;92845;-77
2021/11/19 01:38:36;;;;;;;18.70;11.43;;;13.90;83.80;;;;;;4995822;28;92539;-77
2021/11/19 01:41:22;;;;;;;18.48;10.82;;;13.90;83.80;;;;;;4997991;28;94248;-77
2021/11/19 01:43:50;;;;;;;18.58;9.75;;;13.90;83.80;;;;;;4997274;28;97926;-77
2021/11/19 01:46:23;;;;;;;19.13;10.25;;;13.80;83.90;;;;;;5017543;28;96314;-77
2021/11/19 01:48:52;;;;;;;17.80;10.60;;;13.80;83.90;;;;;;4999004;28;92703;-77
2021/11/19 01:51:44;;;;;;;15.02;10.57;;;13.70;84.00;;;;;;4999148;28;92446;-77
2021/11/19 01:54:18;;;;;;;17.90;9.77;;;13.70;84.10;;;;;;4999079;28;95755;-76
2021/11/19 01:56:51;;;;;;;21.63;11.43;;;13.60;84.30;;;;;;5017622;28;92823;-77
2021/11/19 01:59:24;;;;;;;17.58;9.98;;;13.60;84.30;;;;;;4999149;28;92417;-77
2021/11/19 02:01:57;;;;;;;18.02;9.25;;;13.60;84.30;;;;;;4999396;28;91706;-77
2021/11/19 02:04:34;;;;;;;24.20;11.50;;;13.60;84.40;;;;;;4999516;28;95480;-77
2021/11/19 02:07:07;;;;;;;19.10;10.00;;;13.50;84.30;;;;;;4998753;28;95521;-77
2021/11/19 02:10:06;;;;;;;16.45;9.50;;;13.50;84.50;;;;;;4993298;28;95062;-77
2021/11/19 02:12:39;;;;;;;15.57;9.67;;;13.50;84.80;;;;;;4999344;28;93278;-77
2021/11/19 02:15:16;;;;;;;18.52;9.77;;;13.50;84.90;;;;;;5017684;28;93096;-77
2021/11/19 02:17:50;;;;;;;19.17;9.77;;;13.50;84.80;;;;;;4999054;28;95261;-77
2021/11/19 02:20:27;;;;;;;17.80;9.43;;;13.50;84.80;;;;;;4999389;28;92526;-77
2021/11/19 02:23:17;;;;;;;14.68;9.50;;;13.50;84.90;;;;;;4999268;28;92643;-77
2021/11/19 02:25:49;;;;;;;15.35;8.93;;;13.50;84.80;;;;;;4998432;28;96035;-77
2021/11/19 02:28:20;;;;;;;14.57;8.85;;;13.60;84.80;;;;;;5017481;28;93981;-77
2021/11/19 02:30:49;;;;;;;25.80;9.55;;;13.60;84.70;;;;;;4999105;28;92424;-77
2021/11/19 02:33:18;;;;;;;18.40;9.20;;;13.60;84.60;;;;;;4999180;28;92531;-77
2021/11/19 02:36:02;;;;;;;13.10;7.97;;;13.60;84.60;;;;;;4997440;28;97598;-77
2021/11/19 02:38:55;;;;;;;14.50;8.18;;;13.70;84.50;;;;;;4998984;28;97592;-77
2021/11/19 02:41:25;;;;;;;12.60;8.57;;;13.70;84.40;;;;;;4998988;28;93022;-77
2021/11/19 02:43:57;;;;;;;13.65;7.97;;;13.60;84.40;;;;;;4998444;28;92460;-76
2021/11/19 02:46:35;;;;;;;16.63;9.55;;;13.70;84.20;;;;;;4998975;28;95693;-77
2021/11/19 02:49:05;;;;;;;15.60;8.18;;;13.70;84.10;;;;;;4998806;28;95640;-76
2021/11/19 02:51:34;;;;;;;17.33;9.35;;;13.70;84.20;;;;;;4981842;28;92838;-77
2021/11/19 02:54:08;;;;;;;12.00;8.35;;;13.70;84.00;;;;;;4998993;28;91787;-77
2021/11/19 02:56:37;;;;;;;12.65;8.85;;;13.80;83.90;;;;;;4998791;28;95768;-77
2021/11/19 02:59:07;;;;;;;19.23;8.70;;;13.80;83.80;;;;;;4998557;28;95490;-77
2021/11/19 03:01:43;;;;;;;15.80;8.05;;;13.80;83.80;;;;;;4981215;28;94967;-77
2021/11/19 03:04:24;;;;;;;21.65;8.75;;;13.80;83.70;;;;;;4982641;28;92481;-77
2021/11/19 03:06:54;;;;;;;13.50;8.15;;;13.80;83.70;;;;;;5002948;28;93043;-77
2021/11/19 03:09:24;;;;;;;19.70;8.15;;;13.90;83.60;;;;;;4983704;28;95505;-77
2021/11/19 03:11:52;;;;;;;15.38;8.23;;;13.90;83.60;;;;;;4998227;28;92861;-77
2021/11/19 03:14:21;;;;;;;14.00;8.63;;;13.90;83.50;;;;;;4997660;28;92561;-77
2021/11/19 03:16:49;;;;;;;17.83;8.50;;;13.80;83.40;;;;;;4998313;28;95291;-77
2021/11/19 03:19:17;;;;;;;18.88;9.35;;;13.90;83.30;;;;;;4998813;28;95682;-77
2021/11/19 03:21:45;;;;;;;16.98;9.45;;;13.90;83.20;;;;;;4998601;28;92983;-77
2021/11/19 03:24:14;;;;;;;16.73;7.95;;;13.90;83.20;;;;;;4998853;28;92452;-77
2021/11/19 03:26:45;;;;;;;13.65;9.05;;;13.90;83.20;;;;;;4996826;28;98345;-77
2021/11/19 03:29:13;;;;;;;13.60;8.95;;;13.90;83.30;;;;;;4997978;28;97951;-77
2021/11/19 03:31:42;;;;;;;14.93;8.98;;;13.90;83.30;;;;;;4998388;28;92450;-77
2021/11/19 03:34:13;;;;;;;15.93;9.65;;;13.90;83.20;;;;;;4998149;28;92525;-77
2021/11/19 03:36:45;;;;;;;15.68;9.00;;;13.90;83.20;;;;;;4998245;28;95859;-77
2021/11/19 03:39:13;;;;;;;16.23;9.57;;;13.90;83.30;;;;;;4997904;28;95497;-77
2021/11/19 03:41:42;;;;;;;13.32;9.23;;;13.90;83.20;;;;;;4998212;28;92507;-77
2021/11/19 03:44:23;;;;;;;19.02;9.10;;;13.90;83.20;;;;;;4998013;28;91963;-77
2021/11/19 03:47:01;;;;;;;15.18;8.65;;;14.00;83.10;;;;;;5016058;28;93133;-77
2021/11/19 03:49:31;;;;;;;13.35;8.68;;;13.90;83.20;;;;;;4998086;28;95239;-77
2021/11/19 03:52:06;;;;;;;16.77;9.30;;;13.90;83.10;;;;;;4996415;28;94806;-77
2021/11/19 03:54:35;;;;;;;17.50;9.45;;;14.00;83.10;;;;;;4998209;28;92448;-77
2021/11/19 03:57:04;;;;;;;14.80;9.15;;;14.00;82.90;;;;;;4997574;28;95305;-77
2021/11/19 03:59:32;;;;;;;14.38;8.95;;;14.00;82.90;;;;;;4997942;28;95397;-77
2021/11/19 04:01:59;;;;;;;13.70;8.18;;;14.00;82.90;;;;;;4982711;28;92697;-77
2021/11/19 04:04:31;;;;;;;16.33;8.75;;;13.90;82.90;;;;;;4977675;28;92558;-77
2021/11/19 04:07:00;;;;;;;16.25;8.25;;;14.00;82.90;;;;;;4978164;28;93154;-77
2021/11/19 04:09:28;;;;;;;12.88;8.35;;;14.00;82.90;;;;;;4962249;28;95741;-77
2021/11/19 04:11:56;;;;;;;14.80;8.40;;;14.00;82.70;;;;;;4977704;28;92591;-77
2021/11/19 04:14:24;;;;;;;13.45;8.43;;;14.00;82.70;;;;;;4977979;28;92473;-77
2021/11/19 04:16:53;;;;;;;15.85;8.98;;;14.00;82.60;;;;;;4976258;28;98235;-77
2021/11/19 04:19:22;;;;;;;16.17;9.20;;;14.00;82.60;;;;;;4977527;28;97684;-77
2021/11/19 04:21:52;;;;;;;16.83;8.68;;;14.10;82.60;;;;;;4977783;28;93144;-77
2021/11/19 04:24:36;;;;;;;17.83;9.30;;;14.00;82.50;;;;;;4977587;28;92547;-77
2021/11/19 04:27:08;;;;;;;15.52;9.35;;;14.10;82.50;;;;;;4977400;28;95384;-77
2021/11/19 04:29:54;;;;;;;15.13;8.60;;;14.00;82.50;;;;;;4993359;28;92511;-77
2021/11/19 04:32:26;;;;;;;20.08;10.10;;;14.00;82.60;;;;;;4977750;28;92571;-77
2021/11/19 04:34:56;;;;;;;13.55;8.82;;;14.00;82.50;;;;;;4977453;28;91777;-77
2021/11/19 04:37:24;;;;;;;14.13;9.07;;;14.00;82.50;;;;;;4977639;28;95887;-77
2021/11/19 04:39:52;;;;;;;13.18;8.25;;;14.00;82.50;;;;;;4977439;28;95364;-77
2021/11/19 04:42:20;;;;;;;14.80;8.40;;;14.10;82.50;;;;;;4993514;28;94745;-77
2021/11/19 04:44:48;;;;;;;17.10;9.35;;;14.10;82.50;;;;;;4977708;28;92494;-77
2021/11/19 04:47:15;;;;;;;15.18;8.63;;;14.00;82.40;;;;;;4944746;28;95556;-77
2021/11/19 04:49:43;;;;;;;18.60;9.10;;;14.00;82.40;;;;;;4977171;28;95584;-77
2021/11/19 04:52:12;;;;;;;15.77;8.98;;;14.00;82.40;;;;;;4995247;28;92478;-77
2021/11/19 04:54:39;;;;;;;17.98;9.18;;;14.00;82.40;;;;;;4977428;28;92487;-77
2021/11/19 04:57:07;;;;;;;16.88;8.45;;;14.00;82.40;;;;;;4994856;28;93123;-77
2021/11/19 04:59:35;;;;;;;14.98;9.13;;;14.00;82.50;;;;;;4961499;28;95504;-77
2021/11/19 05:02:11;;;;;;;12.18;9.30;;;14.00;82.40;;;;;;4977220;28;92853;-77
2021/11/19 05:04:49;;;;;;;15.38;8.60;;;14.10;82.40;;;;;;4977428;28;92489;-77
2021/11/19 05:07:18;;;;;;;15.23;10.45;;;14.10;82.30;;;;;;4975519;28;96497;-77
2021/11/19 05:09:46;;;;;;;17.00;9.18;;;14.10;82.30;;;;;;4976626;28;97732;-77
2021/11/19 05:12:20;;;;;;;15.60;8.98;;;14.10;82.20;;;;;;4976917;28;92456;-76
2021/11/19 05:14:49;;;;;;;15.25;9.18;;;14.10;82.20;;;;;;4977304;28;92491;-77
2021/11/19 05:17:17;;;;;;;15.75;8.60;;;14.00;82.20;;;;;;4980217;28;95649;-76
2021/11/19 05:19:45;;;;;;;14.32;9.65;;;14.10;82.30;;;;;;4980248;28;95324;-76
2021/11/19 05:22:11;;;;;;;14.23;8.95;;;14.10;82.30;;;;;;4964064;28;92537;-77
2021/11/19 05:24:40;;;;;;;17.50;9.38;;;14.00;82.30;;;;;;4980739;28;91760;-77
2021/11/19 05:27:07;;;;;;;15.40;9.18;;;14.00;82.30;;;;;;4980006;28;95649;-77
2021/11/19 05:29:35;;;;;;;22.23;9.70;;;14.00;82.30;;;;;;4998201;28;92755;-77
2021/11/19 05:32:05;;;;;;;18.15;9.90;;;14.10;82.30;;;;;;4979084;28;94922;-77
2021/11/19 05:34:33;;;;;;;15.18;9.73;;;14.10;82.20;;;;;;4980296;28;92517;-77
2021/11/19 05:37:02;;;;;;;13.98;8.95;;;14.10;82.20;;;;;;4980156;28;95496;-77
2021/11/19 05:39:31;;;;;;;21.30;9.77;;;14.10;82.10;;;;;;4963924;28;95460;-77
2021/11/19 05:41:58;;;;;;;15.00;9.52;;;14.10;82.20;;;;;;4980232;28;92451;-77
2021/11/19 05:44:26;;;;;;;20.58;9.73;;;14.10;82.90;;;;;;4979689;28;93530;-77
2021/11/19 05:46:56;;;;;;;19.25;10.75;;;14.10;82.20;;;;;;4997890;28;93053;-70
2021/11/19 05:49:23;;;;;;;17.10;9.38;;;14.10;82.30;;;;;;4979444;28;95574;-70
2021/11/19 05:51:56;;;;;;;15.40;9.38;;;14.10;82.20;;;;;;4980259;28;92590;-77
2021/11/19 05:54:26;;;;;;;12.88;8.07;;;14.10;82.30;;;;;;4998099;28;92356;-77
2021/11/19 05:56:54;;;;;;;15.60;9.23;;;14.10;82.20;;;;;;4978813;28;98155;-77
2021/11/19 05:59:23;;;;;;;14.00;9.25;;;14.10;82.20;;;;;;4979426;28;97554;-77
2021/11/19 06:02:11;;;;;;;16.85;10.27;;;14.10;82.20;;;;;;4996236;28;92444;-77
2021/11/19 06:05:05;;;;;;;17.70;9.90;;;14.10;82.20;;;;;;4967066;28;92548;-77
2021/11/19 06:07:46;;;;;;;18.05;9.88;;;14.10;82.20;;;;;;4979702;28;95615;-77
2021/11/19 06:10:18;;;;;;;21.45;10.02;;;14.00;82.20;;;;;;4979336;28;94092;-76
2021/11/19 06:12:58;;;;;;;18.27;9.75;;;14.00;82.10;;;;;;4997596;28;93083;-77
2021/11/19 06:15:30;;;;;;;17.27;10.50;;;14.10;82.10;;;;;;4979937;28;91990;-76
2021/11/19 06:18:02;;;;;;;28.67;17.63;;;14.10;82.10;;;;;;4978578;28;97130;-77
2021/11/19 06:20:45;;;;;;;21.63;10.05;;;14.00;82.00;;;;;;4978637;28;95038;-77
2021/11/19 06:23:31;;;;;;;19.17;9.73;;;14.00;82.10;;;;;;4977629;28;94889;-76
2021/11/19 06:26:00;;;;;;;22.93;10.37;;;14.00;82.20;;;;;;4979433;28;92593;-77
2021/11/19 06:28:36;;;;;;;19.00;10.68;;;14.00;82.30;;;;;;4978476;28;94314;-77
2021/11/19 06:31:03;;;;;;;22.35;10.93;;;14.00;82.30;;;;;;4978824;28;95571;-77
2021/11/19 06:33:30;;;;;;;19.27;10.48;;;14.00;82.30;;;;;;4978581;28;92740;-77
2021/11/19 06:35:57;;;;;;;19.98;10.70;;;13.90;82.20;;;;;;4996767;28;92508;-77
2021/11/19 06:38:26;;;;;;;16.75;10.20;;;14.00;82.40;;;;;;4978182;28;95603;-77
2021/11/19 06:40:57;;;;;;;15.13;10.57;;;13.90;82.20;;;;;;4978753;28;95488;-77
2021/11/19 06:43:43;;;;;;;17.02;10.13;;;14.00;82.40;;;;;;4995784;28;93013;-77
2021/11/19 06:46:32;;;;;;;17.83;10.00;;;13.90;82.40;;;;;;4978443;28;92558;-77
2021/11/19 06:49:00;;;;;;;23.60;10.90;;;13.90;82.30;;;;;;4995302;28;95479;-77
2021/11/19 06:51:43;;;;;;;17.40;9.50;;;13.90;82.20;;;;;;4964600;28;95036;-77
2021/11/19 06:54:37;;;;;;;19.53;10.53;;;13.90;82.20;;;;;;4957937;28;92710;-77
2021/11/19 06:57:23;;;;;;;17.15;10.13;;;13.90;82.50;;;;;;4995830;28;92356;-77
2021/11/19 06:59:52;;;;;;;21.02;10.70;;;13.90;82.40;;;;;;4978069;28;95545;-77
2021/11/19 07:02:18;;;;;;;17.40;11.07;;;13.90;82.40;;;;;;4996129;28;93326;-76
2021/11/19 07:04:46;;;;;;;20.50;11.35;;;13.90;82.30;;;;;;4978599;28;92498;-77
2021/11/19 07:07:14;;;;;;;20.95;10.73;;;13.90;82.20;;;;;;4978674;28;91739;-77
2021/11/19 07:09:42;;;;;;;17.42;9.85;;;13.90;82.30;;;;;;4977841;28;94082;-76
2021/11/19 07:12:14;;;;;;;17.60;11.40;;;13.90;82.40;;;;;;4978374;28;95709;-77
2021/11/19 07:14:49;;;;;;;18.52;11.05;;;13.90;82.40;;;;;;4976946;28;94848;-77
2021/11/19 07:17:18;;;;;;;18.98;10.57;;;13.90;82.30;;;;;;4978058;28;92550;-77
2021/11/19 07:19:45;;;;;;;20.10;11.18;;;13.90;82.20;;;;;;4977915;28;96158;-77
2021/11/19 07:22:13;;;;;;;18.75;11.38;;;14.00;82.10;;;;;;4977965;28;95332;-77
2021/11/19 07:24:43;;;;;;;19.52;10.63;;;14.00;82.00;;;;;;4977761;28;92970;-77
2021/11/19 07:27:14;;;;;;;17.63;10.13;;;14.00;82.00;;;;;;4978046;28;92514;-77
2021/11/19 07:29:43;;;;;;;15.77;9.80;;;14.00;82.10;;;;;;4961521;28;95255;-77
2021/11/19 07:32:28;;;;;;;20.17;10.05;;;14.00;82.10;;;;;;4995770;28;92466;-77
2021/11/19 07:35:13;;;;;;;17.05;9.05;;;13.90;82.10;;;;;;4977634;28;92540;-76
2021/11/19 07:37:56;;;;;;;18.48;9.38;;;13.90;82.10;;;;;;4977793;28;92563;-77
2021/11/19 07:40:53;;;;;;;15.05;9.88;;;13.90;82.20;;;;;;4976683;28;98092;-77
2021/11/19 07:43:47;;;;;;;17.92;9.80;;;14.00;82.20;;;;;;4977170;28;96626;-75
2021/11/19 07:46:23;;;;;;;14.80;9.27;;;14.00;82.10;;;;;;4978354;28;92578;-75
2021/11/19 07:48:55;;;;;;;19.30;9.95;;;14.00;82.00;;;;;;4978151;28;92521;-75
2021/11/19 07:51:29;;;;;;;14.57;8.57;;;14.00;82.00;;;;;;4978062;28;95804;-75
2021/11/19 07:53:57;;;;;;;15.05;9.32;;;14.10;82.00;;;;;;4977774;28;95033;-75
2021/11/19 07:56:30;;;;;;;19.52;9.98;;;14.00;81.90;;;;;;4978021;28;92510;-75
2021/11/19 07:59:04;;;;;;;15.75;9.68;;;14.10;81.80;;;;;;4977839;28;91834;-75
2021/11/19 08:01:31;;;;;;;;;;;14.20;81.80;;;;;;4977959;28;95633;-75
2021/11/19 08:03:58;;;;;;;15.05;8.23;;;14.10;81.60;;;;;;4997047;28;92985;-75
2021/11/19 08:06:27;;;;;;;11.25;8.20;;;14.10;81.60;;;;;;4976712;28;94931;-76
2021/11/19 08:09:15;;;;;;;15.10;8.43;;;14.10;81.60;;;;;;4995319;28;92820;-75
2021/11/19 08:11:50;;;;;;;18.05;10.13;;;14.20;81.50;;;;;;4977388;28;93140;-75
2021/11/19 08:14:17;;;;;;;16.20;8.45;;;14.20;81.40;;;;;;4976978;28;95501;-75
2021/11/19 08:16:53;;;;;;;18.38;8.13;;;14.30;81.30;;;;;;4977204;28;92550;-75
2021/11/19 08:19:40;;;;;;;12.05;7.30;;;14.30;81.20;;;;;;4995589;28;92476;-75
2021/11/19 08:22:07;;;;;;;17.80;7.50;;;14.30;81.00;;;;;;4995426;28;93115;-76
2021/11/19 08:24:34;;;;;;;16.20;7.50;;;14.30;80.90;;;;;;4995541;28;93448;-75
2021/11/19 08:27:10;;;;;;;18.42;7.82;;;14.40;80.80;;;;;;4995665;28;92464;-75
2021/11/19 08:29:40;;;;;;;18.45;8.15;;;14.40;80.60;;;;;;4995558;28;92340;-75
2021/11/19 08:32:08;;;;;;;10.38;6.38;;;14.40;80.50;;;;;;4976744;28;95375;-75
2021/11/19 08:34:36;;;;;;;15.90;7.30;;;14.40;80.30;;;;;;4994951;28;95220;-75
2021/11/19 08:37:04;;;;;;;14.65;7.22;;;14.50;80.40;;;;;;4995680;28;92986;-76
2021/11/19 08:39:33;;;;;;;14.77;7.30;;;14.50;80.20;;;;;;4995118;28;96502;-75
2021/11/19 08:42:00;;;;;;;13.88;6.60;;;14.60;80.10;;;;;;4995128;28;93005;-75
2021/11/19 08:44:27;;;;;;;15.73;6.50;;;14.60;79.90;;;;;;4995034;28;92863;-75
2021/11/19 08:47:16;;;;;;;13.85;6.57;;;14.70;79.70;;;;;;4977556;28;92521;-75
2021/11/19 08:49:44;;;;;;;12.35;5.63;;;14.70;79.70;;;;;;4995403;28;91745;-75
2021/11/19 08:52:14;;;;;;;15.10;6.65;;;14.70;79.40;;;;;;4998341;28;94055;-75
2021/11/19 08:54:42;;;;;;;16.02;6.57;;;14.80;79.30;;;;;;4998167;28;92937;-69
2021/11/19 08:57:13;;;;;;;17.70;6.30;;;14.80;79.10;;;;;;4997641;28;94854;-68
2021/11/19 08:59:43;;;;;;;17.02;6.85;;;14.90;79.00;;;;;;4998640;28;92470;-69
2021/11/19 09:02:12;;;;;;;13.48;5.35;;;14.90;78.70;;;;;;4998350;28;94123;-68
2021/11/19 09:04:57;;;;;;;14.13;5.60;;;15.00;78.60;;;;;;4980555;28;94060;-68
2021/11/19 09:07:24;;;;;;;17.10;6.00;;;15.00;78.40;;;;;;4980643;28;92440;-68
2021/11/19 09:09:53;;;;;;;14.45;5.22;;;15.00;78.40;;;;;;4997456;28;107352;-69
2021/11/19 09:12:20;;;;;;;12.18;5.55;;;15.00;78.10;;;;;;4998332;28;93061;-68
2021/11/19 09:14:47;;;;;;;13.77;5.35;;;15.10;77.90;;;;;;4980904;28;92839;-69
2021/11/19 09:17:41;;;;;;;17.42;5.85;;;15.10;78.10;;;;;;4998575;28;92396;-68
2021/11/19 09:20:18;;;;;;;;;;;15.20;77.80;;;;;;4986684;28;92545;-69
2021/11/19 09:23:09;;;;;;;14.00;4.72;;;15.10;77.20;;;;;;4980076;28;99314;-69
2021/11/19 09:25:37;;;;;;;13.32;4.88;;;15.20;77.40;;;;;;4998177;28;95477;-69
2021/11/19 09:28:06;;;;;;;13.57;4.93;;;15.20;77.40;;;;;;4980556;28;92524;-69
2021/11/19 09:30:38;;;;;;;11.13;5.30;;;15.20;77.00;;;;;;4980140;28;92697;-68
2021/11/19 09:33:09;;;;;;;9.43;4.50;;;15.30;77.00;;;;;;4998398;28;92970;-68
2021/11/19 09:35:37;;;;;;;11.65;4.75;;;15.30;76.90;;;;;;4980269;28;93992;-68
2021/11/19 09:38:07;;;;;;;14.80;5.80;;;15.40;76.80;;;;;;4980746;28;92545;-69
2021/11/19 09:40:42;;;;;;;13.00;4.65;;;15.40;76.60;;;;;;4998403;28;91722;-69
2021/11/19 09:43:18;;;;;;;10.48;4.60;;;15.50;76.50;;;;;;4997246;28;93087;-68
2021/11/19 09:45:51;;;;;;;9.77;4.65;;;15.40;76.20;;;;;;4996944;28;92855;-69
2021/11/19 09:48:50;;;;;;;11.73;4.15;;;15.50;76.10;;;;;;4996125;28;94803;-69
2021/11/19 09:51:38;;;;;;;12.90;4.30;;;15.60;76.20;;;;;;4996940;28;92539;-69
2021/11/19 09:54:38;;;;;;;14.07;4.40;;;15.60;75.90;;;;;;4978844;28;93027;-69
2021/11/19 09:57:17;;;;;;;9.20;4.90;;;15.70;75.60;;;;;;4996679;28;92848;-69
2021/11/19 09:59:50;;;;;;;7.95;4.10;;;15.70;75.40;;;;;;4978978;28;92838;-69
2021/11/19 10:02:50;;;;;;;13.45;4.13;;;15.80;75.30;;;;;;4996453;28;92575;-69
2021/11/19 10:05:23;;;;;;;11.82;4.22;;;15.80;75.00;;;;;;4996168;28;93110;-69
2021/11/19 10:07:59;;;;;;;6.57;3.70;;;15.80;75.10;;;;;;4978332;28;95617;-69
2021/11/19 10:10:47;;;;;;;12.82;4.72;;;15.80;74.90;;;;;;4996656;28;92534;-69
2021/11/19 10:13:33;;;;;;;8.90;3.75;;;15.80;74.70;;;;;;4996614;28;92363;-68
2021/11/19 10:16:03;;;;;;;7.75;3.85;;;15.80;74.40;;;;;;4994694;28;95764;-69
2021/11/19 10:19:08;;;;;;;10.77;3.75;;;15.80;74.50;;;;;;4996290;28;95050;-69
2021/11/19 10:21:43;;;;;;;8.57;3.88;;;15.90;74.30;;;;;;4993722;28;92420;-69
2021/11/19 10:24:24;;;;;;;14.68;4.32;;;15.80;74.40;;;;;;4978128;28;92520;-69
2021/11/19 10:26:51;;;;;;;13.95;4.38;;;15.90;74.30;;;;;;4977629;28;96012;-69
2021/11/19 10:29:23;;;;;;;11.30;4.45;;;15.90;74.40;;;;;;4996169;28;92940;-68
2021/11/19 10:31:52;;;;;;;9.80;4.03;;;15.90;74.40;;;;;;4996162;28;92480;-69
2021/11/19 10:34:38;;;;;;;9.77;4.05;;;15.90;74.30;;;;;;4996226;28;91701;-68
2021/11/19 10:37:41;;;;;;;8.85;3.85;;;15.90;74.00;;;;;;4995765;28;95771;-69
2021/11/19 10:40:46;;;;;;;12.82;3.83;;;16.00;74.00;;;;;;4977539;28;93970;-68
2021/11/19 10:43:32;;;;;;;11.77;3.08;;;15.90;74.00;;;;;;4953508;28;1184095;-69
2021/11/19 10:46:22;;;;;;;7.72;3.40;;;15.90;73.90;;;;;;4996849;28;92413;-69
2021/11/19 10:49:00;;;;;;;9.82;3.45;;;16.00;73.80;;;;;;4997744;28;93139;-69
2021/11/19 10:51:51;;;;;;;7.97;3.63;;;16.00;73.70;;;;;;4998847;28;93889;-69
2021/11/19 10:54:46;;;;;;;14.30;3.28;;;16.10;73.60;;;;;;4999374;28;92443;-69
2021/11/19 10:57:36;;;;;;;12.55;3.58;;;16.20;73.20;;;;;;4998520;28;92494;-68
2021/11/19 11:00:08;;;;;;;10.05;3.50;;;16.10;73.20;;;;;;5016705;28;93103;-68
2021/11/19 11:02:48;;;;;;;10.68;3.13;;;16.20;73.30;;;;;;4998858;28;93002;-69
2021/11/19 11:05:24;;;;;;;10.32;3.42;;;16.20;73.10;;;;;;5015305;28;92453;-68
2021/11/19 11:08:19;;;;;;;8.48;3.30;;;16.20;72.70;;;;;;4998304;28;92450;-68
2021/11/19 11:11:09;;;;;;;9.15;3.53;;;16.30;72.70;;;;;;5015571;28;95213;-69
2021/11/19 11:13:58;;;;;;;11.60;3.80;;;16.30;72.70;;;;;;5015854;28;95218;-69
2021/11/19 11:16:34;;;;;;;9.30;2.88;;;16.40;72.40;;;;;;4998733;28;92455;-69
2021/11/19 11:19:10;;;;;;;11.02;3.88;;;16.30;72.30;;;;;;5016512;28;92431;-69
2021/11/19 11:21:39;;;;;;;11.50;3.72;;;16.40;72.00;;;;;;5016285;28;94158;-68
2021/11/19 11:24:24;;;;;;;11.32;3.10;;;16.40;71.90;;;;;;5014549;28;95690;-69
2021/11/19 11:27:02;;;;;;;8.32;3.30;;;16.40;71.80;;;;;;5016432;28;92823;-68
2021/11/19 11:29:42;;;;;;;12.05;3.25;;;16.40;71.80;;;;;;5015359;28;91789;-68
2021/11/19 11:32:35;;;;;;;11.88;3.50;;;16.50;71.80;;;;;;5016402;28;93082;-68
2021/11/19 11:35:15;;;;;;;6.97;3.00;;;16.50;71.70;;;;;;5015347;28;92923;-68
2021/11/19 11:38:07;;;;;;;12.18;4.22;;;16.40;71.60;;;;;;5013709;28;94874;-68
2021/11/19 11:40:55;;;;;;;7.38;2.83;;;16.40;71.80;;;;;;5016412;28;92385;-69
2021/11/19 11:43:26;;;;;;;12.93;3.20;;;16.50;72.00;;;;;;5015656;28;93005;-69
2021/11/19 11:46:16;;;;;;;7.00;2.85;;;16.50;72.10;;;;;;5016271;28;92993;-68
2021/11/19 11:49:17;;;;;;;7.82;3.08;;;16.50;72.10;;;;;;5016170;28;92985;-68
2021/11/19 11:52:02;;;;;;;10.88;3.03;;;16.50;71.50;;;;;;4981250;28;92932;-68
2021/11/19 11:54:32;;;;;;;11.73;3.88;;;16.50;72.00;;;;;;5016021;28;93157;-69
2021/11/19 11:57:23;;;;;;;8.27;3.20;;;16.40;71.80;;;;;;5015651;28;92650;-69
2021/11/19 11:59:58;;;;;;;7.70;3.58;;;16.40;71.30;;;;;;5015931;28;92470;-69
2021/11/19 12:02:29;;;;;;;7.57;2.90;;;16.40;71.80;;;;;;5015568;28;92457;-68
2021/11/19 12:04:56;;;;;;;7.97;3.10;;;16.40;71.60;;;;;;4996395;28;96716;-68
2021/11/19 12:07:45;;;;;;;10.40;3.15;;;16.30;72.00;;;;;;5015468;28;95550;-68
2021/11/19 12:10:38;;;;;;;8.70;2.97;;;16.40;71.10;;;;;;5015808;28;92323;-69
2021/11/19 12:13:23;;;;;;;8.90;2.88;;;16.50;71.20;;;;;;5015870;28;92426;-69
2021/11/19 12:16:20;;;;;;;6.28;2.72;;;16.40;70.90;;;;;;5015575;28;95049;-69
2021/11/19 12:18:57;;;;;;;5.63;2.50;;;16.40;71.00;;;;;;4997294;28;98468;-69
2021/11/19 12:21:45;;;;;;;8.63;2.90;;;16.40;71.10;;;;;;4997841;28;92459;-69
2021/11/19 12:24:35;;;;;;;8.48;3.42;;;16.50;70.80;;;;;;5015639;28;91758;-68
2021/11/19 12:27:26;;;;;;;8.82;2.88;;;16.60;70.80;;;;;;5013588;28;94082;-69
2021/11/19 12:29:58;;;;;;;7.63;2.58;;;16.60;70.60;;;;;;5015541;28;92722;-69
2021/11/19 12:32:32;;;;;;;10.75;2.78;;;16.50;70.50;;;;;;5014453;28;94885;-68
2021/11/19 12:35:09;;;;;;;11.27;2.53;;;16.50;70.40;;;;;;5015639;28;92495;-69
2021/11/19 12:38:01;;;;;;;4.72;2.65;;;16.50;70.50;;;;;;5015471;28;92986;-68
2021/11/19 12:40:52;;;;;;;7.45;2.42;;;16.50;70.50;;;;;;4997400;28;93386;-69
2021/11/19 12:43:40;;;;;;;8.15;2.55;;;16.50;70.50;;;;;;5014783;28;92362;-68
2021/11/19 12:46:59;;;;;;;8.32;2.33;;;16.50;70.60;;;;;;5015234;28;92576;-68
2021/11/19 12:49:54;;;;;;;6.35;2.20;;;16.40;70.10;;;;;;4997071;28;94462;-68
2021/11/19 12:52:33;;;;;;;10.60;2.78;;;16.30;70.70;;;;;;4997359;28;92732;-69
2021/11/19 12:55:36;;;;;;;6.72;2.33;;;16.10;71.10;;;;;;5015505;28;92402;-70
2021/11/19 12:58:21;;;;;;;8.73;2.92;;;16.00;71.30;;;;;;4997128;28;92552;-68
2021/11/19 13:00:54;;;;;;;5.72;2.50;;;15.80;71.90;;;;;;4996169;28;95482;-69
2021/11/19 13:04:03;;;;;;;9.20;2.75;;;15.60;72.20;;;;;;5014836;28;95141;-69
2021/11/19 13:06:57;;;;;;;10.82;2.72;;;15.60;72.10;;;;;;5015020;28;92473;-68
2021/11/19 13:09:45;;;;;;;8.38;2.70;;;15.50;72.80;;;;;;4997123;28;92395;-68
2021/11/19 13:12:30;;;;;;;7.88;2.50;;;15.40;72.80;;;;;;5015063;28;93238;-69
2021/11/19 13:15:19;;;;;;;11.65;2.95;;;15.40;73.10;;;;;;5015177;28;93039;-69
2021/11/19 13:18:04;;;;;;;8.57;3.08;;;15.40;72.90;;;;;;5015333;28;92506;-68